createdAt,value
2017-10-02T00:01:28.354Z,15.82
2017-10-02T00:03:55.948Z,15.73
2017-10-02T00:06:22.800Z,15.63
2017-10-02T00:08:50.379Z,15.57
2017-10-02T00:11:17.969Z,15.79
2017-10-02T00:13:44.820Z,15.75
2017-10-02T00:16:12.402Z,15.83
2017-10-02T00:18:39.249Z,15.76
2017-10-02T00:21:06.884Z,15.69
2017-10-02T00:23:34.127Z,15.74
2017-10-02T00:26:01.208Z,15.72
2017-10-02T00:28:28.076Z,15.77
2017-10-02T00:30:54.963Z,15.55
2017-10-02T00:33:22.662Z,15.60
2017-10-02T00:35:49.521Z,15.59
2017-10-02T00:38:16.331Z,15.55
2017-10-02T00:40:43.189Z,15.65
2017-10-02T00:43:10.056Z,15.61
2017-10-02T00:45:36.899Z,15.73
2017-10-02T00:48:03.841Z,15.70
2017-10-02T00:50:31.497Z,15.49
2017-10-02T00:52:58.468Z,15.49
2017-10-02T00:55:25.399Z,15.69
2017-10-02T00:57:52.278Z,15.49
2017-10-02T01:00:19.709Z,15.62
2017-10-02T01:02:47.553Z,15.59
2017-10-02T01:05:14.492Z,15.52
2017-10-02T01:07:41.339Z,15.63
2017-10-02T01:10:08.239Z,15.60
2017-10-02T01:12:35.111Z,15.58
2017-10-02T01:15:02.791Z,15.61
2017-10-02T01:17:30.449Z,15.69
2017-10-02T01:19:57.304Z,15.66
2017-10-02T01:22:24.246Z,15.66
2017-10-02T01:24:51.127Z,15.68
2017-10-02T01:27:17.985Z,15.56
2017-10-02T01:29:44.853Z,15.70
2017-10-02T01:32:11.679Z,15.54
2017-10-02T01:34:38.501Z,15.64
2017-10-02T01:37:05.309Z,15.64
2017-10-02T01:39:32.158Z,15.54
2017-10-02T01:41:59.028Z,15.55
2017-10-02T01:44:25.883Z,15.55
2017-10-02T01:46:52.734Z,15.51
2017-10-02T01:49:19.591Z,15.65
2017-10-02T01:51:46.438Z,15.67
2017-10-02T01:54:13.992Z,15.58
2017-10-02T01:56:40.838Z,15.56
2017-10-02T01:59:07.678Z,15.66
2017-10-02T02:01:34.512Z,15.56
2017-10-02T02:04:01.341Z,15.55
2017-10-02T02:06:28.182Z,15.44
2017-10-02T02:08:55.051Z,15.47
2017-10-02T02:11:21.891Z,15.22
2017-10-02T02:13:48.751Z,15.43
2017-10-02T02:16:15.596Z,15.14
2017-10-02T02:18:42.439Z,15.05
2017-10-02T02:21:09.310Z,15.17
2017-10-02T02:23:36.149Z,15.22
2017-10-02T02:26:03.774Z,14.94
2017-10-02T02:28:30.586Z,15.06
2017-10-02T02:30:58.197Z,15.04
2017-10-02T02:33:25.049Z,15.10
2017-10-02T02:35:51.929Z,14.97
2017-10-02T02:38:18.840Z,14.94
2017-10-02T02:40:46.480Z,15.09
2017-10-02T02:43:13.331Z,14.89
2017-10-02T02:45:40.172Z,14.79
2017-10-02T02:48:07.032Z,15.04
2017-10-02T02:50:33.912Z,14.93
2017-10-02T02:53:00.740Z,14.86
2017-10-02T02:55:28.363Z,14.95
2017-10-02T02:57:55.173Z,14.93
2017-10-02T03:00:22.764Z,14.86
2017-10-02T03:02:49.584Z,14.90
2017-10-02T03:05:16.409Z,14.85
2017-10-02T03:07:43.247Z,14.83
2017-10-02T03:10:10.915Z,14.83
2017-10-02T03:12:38.531Z,15.01
2017-10-02T03:15:05.390Z,14.94
2017-10-02T03:17:32.232Z,14.87
2017-10-02T03:19:59.096Z,14.85
2017-10-02T03:22:25.961Z,14.99
2017-10-02T03:24:52.859Z,14.85
2017-10-02T03:27:19.739Z,15.01
2017-10-02T03:29:46.647Z,14.90
2017-10-02T03:32:13.495Z,15.01
2017-10-02T03:34:41.149Z,15.02
2017-10-02T03:37:08.010Z,14.99
2017-10-02T03:39:34.827Z,14.99
2017-10-02T03:42:01.706Z,15.00
2017-10-02T03:44:28.539Z,14.99
2017-10-02T03:46:55.367Z,14.87
2017-10-02T03:49:22.927Z,14.93
2017-10-02T03:51:49.774Z,15.04
2017-10-02T03:54:16.646Z,15.04
2017-10-02T03:56:43.468Z,15.13
2017-10-02T03:59:10.345Z,15.06
2017-10-02T04:01:37.196Z,15.06
2017-10-02T04:04:04.061Z,15.06
2017-10-02T04:06:30.899Z,14.95
2017-10-02T04:08:57.704Z,15.10
2017-10-02T04:11:24.602Z,15.01
2017-10-02T04:13:52.196Z,15.03
2017-10-02T04:16:19.079Z,15.00
2017-10-02T04:18:45.915Z,15.02
2017-10-02T04:21:12.740Z,15.02
2017-10-02T04:23:39.601Z,15.04
2017-10-02T04:26:06.431Z,15.01
2017-10-02T04:28:33.277Z,14.95
2017-10-02T04:31:00.155Z,15.18
2017-10-02T04:33:26.980Z,15.15
2017-10-02T04:35:54.519Z,14.89
2017-10-02T04:38:21.362Z,15.10
2017-10-02T04:40:48.188Z,15.06
2017-10-02T04:43:15.007Z,14.87
2017-10-02T04:45:41.857Z,14.99
2017-10-02T04:48:08.725Z,15.13
2017-10-02T04:50:35.563Z,14.91
2017-10-02T04:53:02.410Z,15.11
2017-10-02T04:55:29.269Z,15.07
2017-10-02T04:57:56.122Z,15.08
2017-10-02T05:00:23.024Z,15.14
2017-10-02T05:02:49.858Z,15.09
2017-10-02T05:05:16.697Z,15.14
2017-10-02T05:07:43.540Z,15.16
2017-10-02T05:10:11.117Z,15.04
2017-10-02T05:12:38.081Z,15.12
2017-10-02T05:15:05.662Z,15.08
2017-10-02T05:17:33.275Z,15.12
2017-10-02T05:20:00.106Z,15.10
2017-10-02T05:22:26.923Z,15.06
2017-10-02T05:24:53.771Z,15.08
2017-10-02T05:27:20.702Z,15.11
2017-10-02T05:29:47.558Z,15.06
2017-10-02T05:32:14.371Z,15.12
2017-10-02T05:34:41.263Z,15.06
2017-10-02T05:37:08.864Z,15.30
2017-10-02T05:39:35.684Z,15.20
2017-10-02T05:42:02.512Z,15.21
2017-10-02T05:44:29.353Z,15.29
2017-10-02T05:46:56.203Z,15.26
2017-10-02T05:49:23.120Z,15.23
2017-10-02T05:51:49.962Z,15.26
2017-10-02T05:54:16.787Z,15.33
2017-10-02T05:56:43.678Z,15.34
2017-10-02T05:59:10.524Z,15.35
2017-10-02T06:01:37.459Z,15.35
2017-10-02T06:04:05.101Z,15.37
2017-10-02T06:06:31.962Z,15.36
2017-10-02T06:08:58.811Z,15.25
2017-10-02T06:11:25.720Z,15.30
2017-10-02T06:13:53.285Z,15.35
2017-10-02T06:16:20.162Z,15.36
2017-10-02T06:18:47.752Z,15.34
2017-10-02T06:21:14.636Z,15.38
2017-10-02T06:23:41.521Z,15.43
2017-10-02T06:26:08.360Z,15.39
2017-10-02T06:28:35.334Z,15.48
2017-10-02T06:31:02.170Z,15.49
2017-10-02T06:33:29.051Z,15.55
2017-10-02T06:35:55.892Z,15.49
2017-10-02T06:38:22.723Z,15.50
2017-10-02T06:40:49.565Z,15.56
2017-10-02T06:43:16.419Z,15.55
2017-10-02T06:45:43.306Z,15.60
2017-10-02T06:48:10.180Z,15.58
2017-10-02T06:50:37.103Z,15.59
2017-10-02T06:53:03.938Z,15.58
2017-10-02T06:55:30.761Z,15.64
2017-10-02T06:57:58.364Z,15.69
2017-10-02T07:00:25.177Z,15.68
2017-10-02T07:02:52.058Z,15.62
2017-10-02T07:05:19.617Z,15.69
2017-10-02T07:07:46.535Z,15.71
2017-10-02T07:10:13.372Z,15.73
2017-10-02T07:12:41.048Z,15.67
2017-10-02T07:15:07.872Z,15.66
2017-10-02T07:17:34.764Z,15.72
2017-10-02T07:20:02.408Z,15.72
2017-10-02T07:22:29.258Z,15.67
2017-10-02T07:24:56.140Z,15.70
2017-10-02T07:27:23.002Z,15.77
2017-10-02T07:29:49.912Z,15.76
2017-10-02T07:32:16.761Z,15.71
2017-10-02T07:34:43.671Z,15.70
2017-10-02T07:37:10.539Z,15.78
2017-10-02T07:39:37.365Z,15.80
2017-10-02T07:42:04.196Z,15.75
2017-10-02T07:44:31.761Z,15.78
2017-10-02T07:46:58.636Z,15.80
2017-10-02T07:49:26.191Z,15.83
2017-10-02T07:51:53.052Z,15.80
2017-10-02T07:54:19.977Z,15.84
2017-10-02T07:56:46.869Z,15.82
2017-10-02T07:59:13.737Z,15.92
2017-10-02T08:01:40.575Z,15.97
2017-10-02T08:04:07.406Z,15.93
2017-10-02T08:06:34.221Z,16.00
2017-10-02T08:09:01.042Z,16.01
2017-10-02T08:11:27.893Z,16.00
2017-10-02T08:13:54.754Z,16.02
2017-10-02T08:16:21.623Z,16.07
2017-10-02T08:18:48.520Z,16.07
2017-10-02T08:21:15.369Z,16.09
2017-10-02T08:23:42.256Z,16.10
2017-10-02T08:26:09.130Z,16.11
2017-10-02T08:28:35.978Z,16.13
2017-10-02T08:31:02.861Z,16.15
2017-10-02T08:33:30.499Z,16.17
2017-10-02T08:35:57.470Z,16.13
2017-10-02T08:38:24.387Z,16.17
2017-10-02T08:40:51.978Z,16.19
2017-10-02T08:43:18.865Z,16.23
2017-10-02T08:45:45.735Z,16.21
2017-10-02T08:48:12.577Z,16.22
2017-10-02T08:50:39.463Z,16.20
2017-10-02T08:53:06.330Z,16.22
2017-10-02T08:55:33.141Z,16.22
2017-10-02T08:57:59.996Z,16.28
2017-10-02T09:00:26.882Z,16.32
2017-10-02T09:02:53.746Z,16.35
2017-10-02T09:05:20.570Z,16.37
2017-10-02T09:07:48.201Z,16.43
2017-10-02T09:10:15.068Z,16.44
2017-10-02T09:12:41.875Z,16.46
2017-10-02T09:15:08.821Z,16.47
2017-10-02T09:17:36.472Z,16.49
2017-10-02T09:20:03.404Z,16.51
2017-10-02T09:22:30.264Z,16.53
2017-10-02T09:24:57.188Z,16.52
2017-10-02T09:27:24.815Z,16.55
2017-10-02T09:29:51.676Z,16.56
2017-10-02T09:32:18.540Z,16.59
2017-10-02T09:34:45.481Z,16.56
2017-10-02T09:37:12.336Z,16.60
2017-10-02T09:39:39.230Z,16.62
2017-10-02T09:42:06.078Z,16.63
2017-10-02T09:44:32.975Z,16.66
2017-10-02T09:46:59.791Z,16.71
2017-10-02T09:49:26.650Z,16.83
2017-10-02T09:51:53.470Z,16.91
2017-10-02T09:54:20.302Z,16.98
2017-10-02T09:56:47.132Z,17.07
2017-10-02T09:59:14.002Z,17.12
2017-10-02T10:01:40.928Z,17.21
2017-10-02T10:04:08.530Z,17.14
2017-10-02T10:06:35.355Z,17.17
2017-10-02T10:09:02.228Z,17.24
2017-10-02T10:11:29.109Z,17.17
2017-10-02T10:13:55.964Z,17.23
2017-10-02T10:16:23.557Z,17.21
2017-10-02T10:18:50.494Z,17.23
2017-10-02T10:21:18.065Z,17.22
2017-10-02T10:23:44.908Z,17.21
2017-10-02T10:26:11.737Z,17.29
2017-10-02T10:28:38.580Z,17.26
2017-10-02T10:31:05.557Z,17.29
2017-10-02T10:33:32.446Z,17.31
2017-10-02T10:35:59.260Z,17.31
2017-10-02T10:38:26.117Z,17.38
2017-10-02T10:40:53.034Z,17.39
2017-10-02T10:43:19.868Z,17.34
2017-10-02T10:45:46.714Z,17.34
2017-10-02T10:48:13.548Z,17.40
2017-10-02T10:50:41.154Z,17.51
2017-10-02T10:53:08.042Z,17.56
2017-10-02T10:55:34.886Z,17.51
2017-10-02T10:58:01.749Z,17.62
2017-10-02T11:00:28.593Z,17.68
2017-10-02T11:02:55.485Z,17.74
2017-10-02T11:05:22.390Z,17.77
2017-10-02T11:07:49.251Z,17.80
2017-10-02T11:10:16.108Z,17.86
2017-10-02T11:12:42.960Z,17.91
2017-10-02T11:15:09.897Z,18.02
2017-10-02T11:17:36.753Z,18.04
2017-10-02T11:20:03.628Z,18.07
2017-10-02T11:22:30.468Z,18.00
2017-10-02T11:24:57.308Z,18.02
2017-10-02T11:27:24.175Z,17.96
2017-10-02T11:29:51.019Z,17.96
2017-10-02T11:32:18.610Z,17.99
2017-10-02T11:34:45.451Z,17.93
2017-10-02T11:37:13.023Z,17.83
2017-10-02T11:39:39.913Z,17.82
2017-10-02T11:42:06.807Z,17.84
2017-10-02T11:44:33.661Z,18.13
2017-10-02T11:47:00.569Z,18.41
2017-10-02T11:49:27.463Z,18.70
2017-10-02T11:51:54.416Z,18.81
2017-10-02T11:54:21.991Z,18.92
2017-10-02T11:56:49.700Z,19.02
2017-10-02T11:59:17.360Z,19.35
2017-10-02T12:01:44.286Z,19.21
2017-10-02T12:04:11.197Z,19.37
2017-10-02T12:06:38.030Z,19.55
2017-10-02T12:09:05.645Z,19.65
2017-10-02T12:11:32.496Z,19.78
2017-10-02T12:13:59.416Z,19.85
2017-10-02T12:16:26.267Z,19.78
2017-10-02T12:18:53.101Z,19.97
2017-10-02T12:21:19.986Z,20.12
2017-10-02T12:23:46.966Z,20.18
2017-10-02T12:26:13.802Z,20.25
2017-10-02T12:28:40.649Z,20.20
2017-10-02T12:31:07.673Z,20.15
2017-10-02T12:33:37.378Z,19.90
2017-10-02T12:36:04.300Z,20.07
2017-10-02T12:38:31.359Z,19.93
2017-10-02T12:40:58.180Z,19.81
2017-10-02T12:43:25.766Z,19.94
2017-10-02T12:45:53.397Z,19.75
2017-10-02T12:48:20.257Z,19.49
2017-10-02T12:50:47.133Z,19.54
2017-10-02T12:53:13.994Z,19.45
2017-10-02T12:55:40.867Z,19.50
2017-10-02T12:58:07.800Z,19.23
2017-10-02T13:00:35.527Z,19.04
2017-10-02T13:03:02.364Z,18.85
2017-10-02T13:05:29.269Z,18.97
2017-10-02T13:07:56.188Z,19.06
2017-10-02T13:10:23.032Z,19.19
2017-10-02T13:12:49.929Z,19.43
2017-10-02T13:15:16.874Z,20.01
2017-10-02T13:17:43.774Z,20.17
2017-10-02T13:20:10.639Z,20.22
2017-10-02T13:22:38.245Z,20.32
2017-10-02T13:25:05.114Z,20.04
2017-10-02T13:27:31.975Z,19.89
2017-10-02T13:29:58.870Z,20.24
2017-10-02T13:32:25.724Z,20.77
2017-10-02T13:34:52.565Z,20.76
2017-10-02T13:37:19.402Z,20.93
2017-10-02T13:39:46.219Z,20.85
2017-10-02T13:42:13.067Z,20.92
2017-10-02T13:44:39.960Z,21.17
2017-10-02T13:47:06.839Z,21.23
2017-10-02T13:49:33.690Z,20.78
2017-10-02T13:52:01.283Z,20.58
2017-10-02T13:54:28.145Z,20.56
2017-10-02T13:56:54.980Z,20.35
2017-10-02T13:59:23.055Z,20.35
2017-10-02T14:01:49.869Z,20.51
2017-10-02T14:04:16.765Z,20.96
2017-10-02T14:06:43.642Z,20.98
2017-10-02T14:09:10.506Z,20.64
2017-10-02T14:11:37.443Z,20.53
2017-10-02T14:14:04.411Z,20.55
2017-10-02T14:16:32.155Z,20.65
2017-10-02T14:18:58.995Z,20.94
2017-10-02T14:21:26.606Z,21.09
2017-10-02T14:23:54.064Z,20.99
2017-10-02T14:26:20.879Z,21.00
2017-10-02T14:28:47.828Z,21.28
2017-10-02T14:31:14.671Z,21.34
2017-10-02T14:33:41.508Z,21.29
2017-10-02T14:36:08.373Z,21.42
2017-10-02T14:38:35.179Z,21.31
2017-10-02T14:41:02.028Z,21.26
2017-10-02T14:43:28.915Z,21.35
2017-10-02T14:45:55.734Z,21.18
2017-10-02T14:48:22.553Z,21.27
2017-10-02T14:50:50.162Z,21.10
2017-10-02T14:53:16.999Z,21.27
2017-10-02T14:55:44.611Z,21.27
2017-10-02T14:58:11.517Z,21.13
2017-10-02T15:00:38.352Z,21.30
2017-10-02T15:03:05.240Z,20.99
2017-10-02T15:05:32.062Z,21.02
2017-10-02T15:07:58.926Z,20.72
2017-10-02T15:10:25.776Z,21.26
2017-10-02T15:12:52.705Z,20.62
2017-10-02T15:15:20.920Z,20.37
2017-10-02T15:17:47.796Z,20.79
2017-10-02T15:20:14.625Z,20.74
2017-10-02T15:22:42.164Z,20.88
2017-10-02T15:25:09.019Z,21.09
2017-10-02T15:27:35.852Z,20.97
2017-10-02T15:30:02.759Z,20.96
2017-10-02T15:32:29.588Z,20.63
2017-10-02T15:34:56.420Z,20.73
2017-10-02T15:37:23.259Z,20.49
2017-10-02T15:39:52.798Z,20.44
2017-10-02T15:42:19.816Z,20.56
2017-10-02T15:44:46.667Z,20.60
2017-10-02T15:47:13.472Z,20.30
2017-10-02T15:49:41.017Z,20.33
2017-10-02T15:52:07.883Z,20.05
2017-10-02T15:54:34.815Z,19.86
2017-10-02T15:57:01.671Z,19.96
2017-10-02T15:59:28.531Z,20.00
2017-10-02T16:01:55.668Z,19.66
2017-10-02T16:04:22.843Z,19.85
2017-10-02T16:06:49.668Z,19.69
2017-10-02T16:09:16.503Z,19.72
2017-10-02T16:11:43.426Z,19.58
2017-10-02T16:14:11.015Z,19.34
2017-10-02T16:16:37.884Z,19.27
2017-10-02T16:19:04.931Z,19.34
2017-10-02T16:21:31.793Z,19.32
2017-10-02T16:23:59.491Z,19.03
2017-10-02T16:26:26.391Z,19.21
2017-10-02T16:28:53.236Z,19.15
2017-10-02T16:31:20.340Z,19.30
2017-10-02T16:33:47.508Z,19.14
2017-10-02T16:36:14.331Z,19.19
2017-10-02T16:38:41.225Z,19.13
2017-10-02T16:41:08.059Z,19.08
2017-10-02T16:43:34.919Z,19.13
2017-10-02T16:46:01.731Z,18.96
2017-10-02T16:48:28.569Z,19.06
2017-10-02T16:50:55.420Z,18.97
2017-10-02T16:53:22.219Z,18.75
2017-10-02T16:55:49.750Z,18.67
2017-10-02T16:58:16.566Z,18.72
2017-10-02T17:00:43.487Z,18.75
2017-10-02T17:03:10.314Z,18.73
2017-10-02T17:05:37.199Z,18.66
2017-10-02T17:08:04.022Z,18.58
2017-10-02T17:10:30.834Z,18.38
2017-10-02T17:12:57.683Z,18.44
2017-10-02T17:15:24.558Z,18.60
2017-10-02T17:17:51.413Z,18.59
2017-10-02T17:20:18.358Z,18.47
2017-10-02T17:22:45.207Z,18.47
2017-10-02T17:25:12.549Z,18.31
2017-10-02T17:27:40.159Z,18.31
2017-10-02T17:30:07.065Z,18.41
2017-10-02T17:32:35.116Z,18.43
2017-10-02T17:35:02.023Z,18.41
2017-10-02T17:37:28.859Z,18.27
2017-10-02T17:39:55.732Z,18.26
2017-10-02T17:42:23.069Z,18.32
2017-10-02T17:44:50.135Z,18.34
2017-10-02T17:47:17.009Z,18.16
2017-10-02T17:49:43.973Z,18.32
2017-10-02T17:52:11.098Z,18.28
2017-10-02T17:54:38.144Z,18.15
2017-10-02T17:57:05.209Z,18.16
2017-10-02T17:59:32.294Z,18.22
2017-10-02T18:01:59.380Z,18.14
2017-10-02T18:04:26.287Z,18.24
2017-10-02T18:06:54.115Z,18.08
2017-10-02T18:09:21.152Z,18.23
2017-10-02T18:11:48.136Z,18.10
2017-10-02T18:14:15.081Z,18.08
2017-10-02T18:16:42.009Z,18.01
2017-10-02T18:19:09.071Z,17.95
2017-10-02T18:21:36.446Z,17.94
2017-10-02T18:24:03.444Z,17.87
2017-10-02T18:26:30.478Z,17.93
2017-10-02T18:28:57.430Z,17.94
2017-10-02T18:31:24.508Z,17.66
2017-10-02T18:33:51.589Z,17.88
2017-10-02T18:36:18.643Z,17.60
2017-10-02T18:38:45.537Z,17.81
2017-10-02T18:41:13.265Z,17.81
2017-10-02T18:43:40.110Z,17.48
2017-10-02T18:46:08.216Z,17.66
2017-10-02T18:48:35.873Z,17.78
2017-10-02T18:51:04.592Z,17.62
2017-10-02T18:53:33.566Z,17.71
2017-10-02T18:56:01.924Z,17.61
2017-10-02T18:58:29.709Z,17.64
2017-10-02T19:00:56.883Z,17.68
2017-10-02T19:03:23.901Z,17.49
2017-10-02T19:05:51.623Z,17.62
2017-10-02T19:08:18.466Z,17.71
2017-10-02T19:10:45.637Z,17.62
2017-10-02T19:13:12.488Z,17.46
2017-10-02T19:15:39.808Z,17.40
2017-10-02T19:18:08.130Z,17.52
2017-10-02T19:20:35.261Z,17.27
2017-10-02T19:23:02.236Z,17.58
2017-10-02T19:25:29.200Z,17.70
2017-10-02T19:27:56.485Z,17.36
2017-10-02T19:30:25.944Z,17.29
2017-10-02T19:32:53.637Z,16.93
2017-10-02T19:35:21.763Z,17.38
2017-10-02T19:37:48.647Z,17.31
2017-10-02T19:40:15.929Z,17.29
2017-10-02T19:42:43.728Z,17.29
2017-10-02T19:45:10.811Z,17.28
2017-10-02T19:47:37.901Z,17.12
2017-10-02T19:50:05.804Z,17.06
2017-10-02T19:52:32.999Z,16.98
2017-10-02T19:55:00.899Z,17.16
2017-10-02T19:57:28.812Z,17.14
2017-10-02T19:59:55.846Z,17.22
2017-10-02T20:02:23.138Z,16.99
2017-10-02T20:04:50.174Z,16.83
2017-10-02T20:07:17.945Z,17.17
2017-10-02T20:09:45.736Z,16.80
2017-10-02T20:12:12.771Z,17.06
2017-10-02T20:14:39.700Z,16.97
2017-10-02T20:17:06.567Z,16.70
2017-10-02T20:19:34.823Z,16.84
2017-10-02T20:22:02.692Z,16.59
2017-10-02T20:24:31.575Z,16.87
2017-10-02T20:26:59.774Z,16.68
2017-10-02T20:29:27.351Z,16.43
2017-10-02T20:31:55.313Z,16.47
2017-10-02T20:34:23.630Z,16.56
2017-10-02T20:36:52.017Z,16.35
2017-10-02T20:39:19.032Z,16.48
2017-10-02T20:41:47.018Z,16.62
2017-10-02T20:44:14.944Z,16.70
2017-10-02T20:46:43.226Z,16.40
2017-10-02T20:49:10.307Z,16.41
2017-10-02T20:51:37.145Z,16.47
2017-10-02T20:54:04.374Z,16.40
2017-10-02T20:56:32.282Z,16.38
2017-10-02T20:58:59.272Z,16.59
2017-10-02T21:01:26.948Z,16.27
2017-10-02T21:03:54.212Z,16.21
2017-10-02T21:06:21.191Z,16.16
2017-10-02T21:08:48.099Z,16.29
2017-10-02T21:11:15.742Z,16.04
2017-10-02T21:13:42.620Z,16.02
2017-10-02T21:16:09.512Z,16.07
2017-10-02T21:18:36.371Z,16.03
2017-10-02T21:21:03.230Z,15.78
2017-10-02T21:23:30.072Z,15.82
2017-10-02T21:25:56.913Z,15.50
2017-10-02T21:28:23.765Z,15.87
2017-10-02T21:30:50.655Z,15.41
2017-10-02T21:33:17.526Z,15.83
2017-10-02T21:35:44.419Z,15.95
2017-10-02T21:38:12.067Z,15.81
2017-10-02T21:40:38.911Z,15.74
2017-10-02T21:43:05.840Z,15.67
2017-10-02T21:45:34.177Z,15.73
2017-10-02T21:48:01.076Z,16.16
2017-10-02T21:50:28.666Z,15.95
2017-10-02T21:52:55.552Z,15.88
2017-10-02T21:55:22.451Z,15.95
2017-10-02T21:57:49.299Z,16.08
2017-10-02T22:00:16.216Z,16.11
2017-10-02T22:02:43.034Z,15.95
2017-10-02T22:05:09.910Z,15.92
2017-10-02T22:07:36.750Z,15.81
2017-10-02T22:10:03.591Z,15.35
2017-10-02T22:12:30.432Z,15.53
2017-10-02T22:14:57.410Z,15.69
2017-10-02T22:17:24.269Z,15.82
2017-10-02T22:19:51.099Z,15.22
2017-10-02T22:22:18.750Z,15.77
2017-10-02T22:24:45.660Z,15.23
2017-10-02T22:27:12.562Z,15.32
2017-10-02T22:29:39.420Z,15.20
2017-10-02T22:32:06.291Z,15.68
2017-10-02T22:34:33.138Z,15.21
2017-10-02T22:36:59.986Z,15.54
2017-10-02T22:39:26.836Z,15.40
2017-10-02T22:41:53.758Z,15.16
2017-10-02T22:44:20.675Z,15.24
2017-10-02T22:46:47.542Z,15.27
2017-10-02T22:49:14.455Z,15.33
2017-10-02T22:51:42.074Z,15.39
2017-10-02T22:54:09.122Z,15.56
2017-10-02T22:56:35.950Z,15.26
2017-10-02T22:59:02.868Z,14.92
2017-10-02T23:01:29.762Z,15.28
2017-10-02T23:03:56.614Z,15.39
2017-10-02T23:06:23.527Z,15.71
2017-10-02T23:08:50.594Z,15.29
2017-10-02T23:11:17.410Z,15.24
2017-10-02T23:13:44.236Z,15.39
2017-10-02T23:16:11.903Z,14.97
2017-10-02T23:18:38.926Z,15.35
2017-10-02T23:21:06.854Z,15.16
2017-10-02T23:23:33.732Z,14.68
2017-10-02T23:26:00.600Z,14.46
2017-10-02T23:28:27.395Z,15.31
2017-10-02T23:30:54.266Z,14.90
2017-10-02T23:33:21.169Z,15.13
2017-10-02T23:35:48.046Z,14.95
2017-10-02T23:38:14.841Z,15.42
2017-10-02T23:40:41.631Z,15.16
2017-10-02T23:43:08.502Z,15.01
2017-10-02T23:45:35.390Z,15.26
2017-10-02T23:48:02.218Z,15.28
2017-10-02T23:50:29.458Z,15.17
2017-10-02T23:52:56.304Z,15.20
2017-10-02T23:55:23.176Z,15.08
2017-10-02T23:57:50.073Z,15.18
